Time;durP1;ratioP1;P1;durP2;ratioP2;P2;SDS_P1;SDS_P2;PMS_P1;PMS_P2;Temp;Humidity;BMP_temperature;BMP_pressure;BME280_temperature;BME280_humidity;BME280_pressure;Samples;Min_cycle;Max_cycle;Signal;HPM_P1;HPM_P2
2022/04/27 00:01:32;;;;;;;5.43;3.28;;;;;;;;;;5076090;28;20029;-80
2022/04/27 00:03:58;;;;;;;4.93;3.58;;;;;;;;;;5075778;28;20033;-80
2022/04/27 00:06:23;;;;;;;9.05;3.33;;;;;;;;;;5075890;28;20074;-80
2022/04/27 00:08:49;;;;;;;5.25;3.13;;;;;;;;;;5075946;28;20029;-80
2022/04/27 00:11:15;;;;;;;3.45;2.65;;;;;;;;;;5057935;28;20368;-79
2022/04/27 00:13:41;;;;;;;3.90;3.10;;;;;;;;;;5041836;28;20036;-80
2022/04/27 00:16:06;;;;;;;3.92;3.20;;;;;;;;;;5069001;28;20362;-79
2022/04/27 00:18:32;;;;;;;3.75;2.88;;;;;;;;;;5041583;28;20456;-80
2022/04/27 00:20:57;;;;;;;7.72;3.03;;;;;;;;;;5058025;28;20032;-78
2022/04/27 00:23:25;;;;;;;4.45;3.00;;;;;;;;;;5057946;28;20111;-80
2022/04/27 00:25:51;;;;;;;5.20;3.03;;;;;;;;;;5057594;28;20131;-80
2022/04/27 00:28:16;;;;;;;4.25;2.97;;;;;;;;;;5057742;28;20020;-79
2022/04/27 00:30:42;;;;;;;3.33;2.97;;;;;;;;;;5024761;28;20077;-79
2022/04/27 00:33:09;;;;;;;4.68;3.45;;;;;;;;;;5075128;28;20025;-79
2022/04/27 00:35:36;;;;;;;4.18;3.45;;;;;;;;;;5062528;28;20036;-79
2022/04/27 00:38:02;;;;;;;3.78;3.30;;;;;;;;;;5060669;28;20052;-78
2022/04/27 00:40:27;;;;;;;4.70;3.08;;;;;;;;;;5074279;28;20025;-80
2022/04/27 00:42:52;;;;;;;4.32;3.25;;;;;;;;;;5075189;28;20028;-79
2022/04/27 00:45:18;;;;;;;7.82;3.60;;;;;;;;;;5075309;28;20127;-79
2022/04/27 00:47:43;;;;;;;7.00;3.45;;;;;;;;;;5074920;28;20052;-80
2022/04/27 00:50:09;;;;;;;6.05;3.80;;;;;;;;;;5075252;28;20025;-79
2022/04/27 00:52:35;;;;;;;8.30;3.63;;;;;;;;;;5041007;28;20032;-80
2022/04/27 00:55:01;;;;;;;6.03;3.80;;;;;;;;;;5042303;28;20473;-80
2022/04/27 00:57:26;;;;;;;5.25;3.72;;;;;;;;;;5028827;28;20086;-80
2022/04/27 00:59:52;;;;;;;4.25;3.50;;;;;;;;;;5057733;28;20044;-79
2022/04/27 01:02:26;;;;;;;9.55;4.07;;;;;;;;;;5137102;27;530268;-79
2022/04/27 01:04:51;;;;;;;5.30;3.60;;;;;;;;;;5134890;27;20023;-79
2022/04/27 01:07:17;;;;;;;10.27;3.53;;;;;;;;;;5134686;27;20019;-79
2022/04/27 01:09:42;;;;;;;4.00;3.53;;;;;;;;;;5117598;27;20034;-79
2022/04/27 01:12:08;;;;;;;5.43;3.45;;;;;;;;;;5137390;27;20031;-79
2022/04/27 01:14:41;;;;;;;4.93;3.63;;;;;;;;;;5125674;27;20031;-79
2022/04/27 01:17:07;;;;;;;5.20;3.47;;;;;;;;;;5151719;27;20051;-78
2022/04/27 01:19:32;;;;;;;5.03;3.70;;;;;;;;;;5170406;27;20022;-81
2022/04/27 01:21:58;;;;;;;7.43;3.67;;;;;;;;;;5155286;27;20035;-79
2022/04/27 01:24:26;;;;;;;5.90;3.30;;;;;;;;;;5133337;27;20027;-80
2022/04/27 01:26:52;;;;;;;8.18;3.55;;;;;;;;;;5144126;27;20038;-79
2022/04/27 01:29:18;;;;;;;4.60;3.45;;;;;;;;;;5134400;27;20023;-79
2022/04/27 01:31:44;;;;;;;6.22;3.42;;;;;;;;;;5135790;27;20034;-79
2022/04/27 01:34:10;;;;;;;7.38;3.60;;;;;;;;;;5117553;27;20341;-79
2022/04/27 01:36:35;;;;;;;7.72;3.70;;;;;;;;;;5125205;27;20034;-79
2022/04/27 01:39:01;;;;;;;6.60;3.47;;;;;;;;;;5156503;27;20046;-79
2022/04/27 01:41:26;;;;;;;7.80;3.40;;;;;;;;;;5134106;27;20042;-79
2022/04/27 01:43:52;;;;;;;5.90;3.80;;;;;;;;;;5134450;27;20155;-79
2022/04/27 01:46:17;;;;;;;5.68;3.75;;;;;;;;;;5133928;27;20372;-79
2022/04/27 01:48:43;;;;;;;5.75;3.97;;;;;;;;;;5152452;27;20379;-79
2022/04/27 01:51:09;;;;;;;5.32;4.13;;;;;;;;;;5133976;27;20479;-79
2022/04/27 01:56:19;;;;;;;6.72;4.00;;;;;;;;;;5140255;27;20034;-79
2022/04/27 01:58:45;;;;;;;7.22;4.22;;;;;;;;;;5158499;27;20050;-79
2022/04/27 02:01:11;;;;;;;5.82;3.95;;;;;;;;;;5133516;27;20125;-79
2022/04/27 02:03:37;;;;;;;12.15;4.15;;;;;;;;;;5133578;27;20033;-79
2022/04/27 02:06:03;;;;;;;7.65;3.95;;;;;;;;;;5133718;27;20023;-78
2022/04/27 02:08:28;;;;;;;6.03;4.10;;;;;;;;;;5152111;27;20029;-79
2022/04/27 02:10:54;;;;;;;9.57;4.00;;;;;;;;;;5133595;27;20075;-79
2022/04/27 02:13:20;;;;;;;6.20;4.50;;;;;;;;;;5122402;27;20019;-79
2022/04/27 02:15:45;;;;;;;9.18;4.07;;;;;;;;;;5119529;27;20509;-79
2022/04/27 02:18:11;;;;;;;7.50;4.20;;;;;;;;;;5123157;27;20031;-78
2022/04/27 02:20:36;;;;;;;10.95;4.32;;;;;;;;;;5085658;27;20031;-78
2022/04/27 02:23:02;;;;;;;6.10;4.63;;;;;;;;;;5137859;27;20053;-79
2022/04/27 02:25:27;;;;;;;7.80;4.80;;;;;;;;;;5119613;27;20038;-79
2022/04/27 02:27:53;;;;;;;5.75;4.28;;;;;;;;;;5137837;27;20380;-78
2022/04/27 02:30:18;;;;;;;6.65;4.63;;;;;;;;;;5119491;27;20031;-79
2022/04/27 02:32:45;;;;;;;8.93;4.82;;;;;;;;;;5119380;27;20435;-79
2022/04/27 02:35:11;;;;;;;7.78;5.07;;;;;;;;;;5119620;27;20058;-78
2022/04/27 02:37:37;;;;;;;7.07;5.20;;;;;;;;;;5125354;27;20018;-78
2022/04/27 02:40:03;;;;;;;8.93;5.40;;;;;;;;;;5120612;27;20023;-79
2022/04/27 02:42:29;;;;;;;11.40;5.63;;;;;;;;;;5119256;27;20096;-79
2022/04/27 02:44:58;;;;;;;11.43;5.78;;;;;;;;;;5137401;27;20023;-79
2022/04/27 02:47:23;;;;;;;12.70;5.82;;;;;;;;;;5119137;27;20030;-79
2022/04/27 02:52:32;;;;;;;6.28;4.35;;;;;;;;;;5121856;27;20030;-78
2022/04/27 02:54:58;;;;;;;4.68;3.85;;;;;;;;;;5119177;27;20023;-79
2022/04/27 02:57:23;;;;;;;5.53;3.80;;;;;;;;;;5125586;27;20028;-79
2022/04/27 02:59:49;;;;;;;3.90;3.38;;;;;;;;;;5122669;27;20065;-79
2022/04/27 03:02:14;;;;;;;5.72;4.05;;;;;;;;;;5101912;27;20035;-79
2022/04/27 03:04:40;;;;;;;3.88;3.28;;;;;;;;;;5118952;27;20029;-79
2022/04/27 03:07:06;;;;;;;5.68;3.67;;;;;;;;;;5119022;27;20031;-78
2022/04/27 03:09:31;;;;;;;3.92;3.13;;;;;;;;;;5137014;27;20027;-78
2022/04/27 03:11:57;;;;;;;8.40;3.55;;;;;;;;;;5136762;27;20033;-79
2022/04/27 03:14:22;;;;;;;4.60;3.35;;;;;;;;;;5101558;27;20110;-78
2022/04/27 03:16:48;;;;;;;5.35;3.40;;;;;;;;;;5120363;27;20035;-78
2022/04/27 03:19:14;;;;;;;9.85;3.33;;;;;;;;;;5125307;27;20042;-79
2022/04/27 03:21:39;;;;;;;4.70;3.20;;;;;;;;;;5101356;27;20027;-79
2022/04/27 03:24:05;;;;;;;3.80;3.17;;;;;;;;;;5117424;27;20050;-79
2022/04/27 03:26:31;;;;;;;4.25;3.63;;;;;;;;;;5118185;27;20030;-79
2022/04/27 03:28:57;;;;;;;4.53;3.17;;;;;;;;;;5101756;27;20046;-79
2022/04/27 03:31:23;;;;;;;5.22;3.15;;;;;;;;;;5118198;27;20428;-79
2022/04/27 03:33:49;;;;;;;4.03;3.38;;;;;;;;;;5118290;27;20046;-79
2022/04/27 03:36:14;;;;;;;5.82;3.40;;;;;;;;;;5118492;27;20447;-77
2022/04/27 03:38:40;;;;;;;7.18;4.20;;;;;;;;;;5144018;27;20003;-79
2022/04/27 03:41:06;;;;;;;6.53;3.65;;;;;;;;;;5101067;27;20117;-79
2022/04/27 03:43:31;;;;;;;5.03;3.72;;;;;;;;;;5100962;27;20050;-79
2022/04/27 03:45:57;;;;;;;5.57;3.65;;;;;;;;;;5101209;27;20066;-78
2022/04/27 03:48:22;;;;;;;4.97;3.50;;;;;;;;;;5118055;27;20034;-79
2022/04/27 03:50:48;;;;;;;4.72;3.40;;;;;;;;;;5136256;27;20402;-78
2022/04/27 03:53:13;;;;;;;5.05;3.72;;;;;;;;;;5117961;27;20122;-78
2022/04/27 03:55:39;;;;;;;7.75;3.63;;;;;;;;;;5141450;27;19999;-78
2022/04/27 03:58:05;;;;;;;6.22;3.83;;;;;;;;;;5143252;27;20440;-79
2022/04/27 04:00:30;;;;;;;6.65;3.97;;;;;;;;;;5135864;27;20038;-79
2022/04/27 04:02:58;;;;;;;6.30;4.55;;;;;;;;;;5117750;27;20482;-79
2022/04/27 04:05:23;;;;;;;5.20;4.30;;;;;;;;;;5083789;27;20035;-78
2022/04/27 04:07:49;;;;;;;9.32;4.20;;;;;;;;;;5117632;27;20027;-79
2022/04/27 04:10:14;;;;;;;6.53;4.50;;;;;;;;;;5117231;27;20083;-79
2022/04/27 04:12:40;;;;;;;8.02;3.97;;;;;;;;;;5117439;27;20429;-75
2022/04/27 04:15:06;;;;;;;4.43;3.83;;;;;;;;;;5118097;27;20353;-75
2022/04/27 04:17:31;;;;;;;6.35;4.13;;;;;;;;;;5142598;27;20023;-74
2022/04/27 04:19:57;;;;;;;5.70;3.95;;;;;;;;;;5100258;27;20360;-74
2022/04/27 04:22:22;;;;;;;8.93;4.07;;;;;;;;;;5135379;27;20037;-75
2022/04/27 04:30:15;;;;;;;12.65;3.60;;;;;;;;;;5135524;27;20034;-74
2022/04/27 04:32:41;;;;;;;12.13;4.40;;;;;;;;;;5117475;27;20023;-74
2022/04/27 04:35:07;;;;;;;6.78;4.15;;;;;;;;;;5112508;27;20118;-74
2022/04/27 04:37:33;;;;;;;6.45;4.50;;;;;;;;;;5137631;27;20031;-75
2022/04/27 04:39:58;;;;;;;9.57;5.50;;;;;;;;;;5134244;27;20027;-75
2022/04/27 04:42:24;;;;;;;9.43;5.20;;;;;;;;;;5116787;27;20037;-74
2022/04/27 04:44:49;;;;;;;8.05;5.18;;;;;;;;;;5116347;27;20513;-74
2022/04/27 04:47:27;;;;;;;7.70;5.28;;;;;;;;;;5118704;27;20056;-75
2022/04/27 04:49:53;;;;;;;7.95;4.80;;;;;;;;;;5137001;27;20027;-75
2022/04/27 04:52:18;;;;;;;9.00;5.00;;;;;;;;;;5116606;28;20364;-76
2022/04/27 04:54:44;;;;;;;8.73;5.00;;;;;;;;;;5132520;27;20095;-75
2022/04/27 04:57:09;;;;;;;10.32;5.00;;;;;;;;;;5138012;27;20035;-77
2022/04/27 04:59:34;;;;;;;5.70;4.50;;;;;;;;;;5095087;28;20112;-77
2022/04/27 05:02:00;;;;;;;7.20;4.57;;;;;;;;;;5098129;28;20059;-75
2022/04/27 05:04:25;;;;;;;7.72;4.80;;;;;;;;;;5110336;28;20441;-76
2022/04/27 05:06:51;;;;;;;7.43;4.50;;;;;;;;;;5105959;28;20035;-74
2022/04/27 05:09:19;;;;;;;11.55;4.40;;;;;;;;;;5121337;28;20031;-77
2022/04/27 05:11:45;;;;;;;5.78;3.60;;;;;;;;;;5114210;28;20047;-76
2022/04/27 05:14:11;;;;;;;8.07;4.03;;;;;;;;;;5131787;28;20050;-76
2022/04/27 05:16:37;;;;;;;8.27;4.53;;;;;;;;;;5131141;27;20038;-74
2022/04/27 05:19:03;;;;;;;7.53;4.13;;;;;;;;;;5131348;28;20035;-76
2022/04/27 05:21:30;;;;;;;5.15;4.32;;;;;;;;;;5129584;27;20047;-77
2022/04/27 05:23:56;;;;;;;9.40;4.13;;;;;;;;;;5132172;27;20030;-77
2022/04/27 05:26:21;;;;;;;7.32;4.03;;;;;;;;;;5130580;28;20031;-77
2022/04/27 05:32:16;;;;;;;5.68;3.53;;;;;;;;;;5117635;28;20182;-79
2022/04/27 05:34:17;;;;;;;10.88;3.67;;;;;;;;;;5127148;27;20069;-77
2022/04/27 05:36:42;;;;;;;7.80;3.75;;;;;;;;;;5136621;27;20019;-78
2022/04/27 05:39:08;;;;;;;7.90;3.60;;;;;;;;;;5118312;28;20032;-77
2022/04/27 05:41:34;;;;;;;5.35;3.28;;;;;;;;;;5135084;27;20074;-77
2022/04/27 05:44:02;;;;;;;6.68;3.63;;;;;;;;;;5116324;27;20103;-77
2022/04/27 05:46:29;;;;;;;6.57;3.58;;;;;;;;;;5114298;28;20026;-78
2022/04/27 05:48:54;;;;;;;10.63;3.83;;;;;;;;;;5113739;28;20080;-79
2022/04/27 05:51:20;;;;;;;7.65;3.85;;;;;;;;;;5117203;28;20035;-76
2022/04/27 05:53:45;;;;;;;7.75;3.00;;;;;;;;;;5116166;28;20036;-78
2022/04/27 05:56:12;;;;;;;8.00;2.95;;;;;;;;;;5110408;28;20514;-78
2022/04/27 05:58:38;;;;;;;20.23;4.38;;;;;;;;;;5114813;28;20066;-76
2022/04/27 06:01:04;;;;;;;13.02;3.80;;;;;;;;;;5122885;27;20635;-78
2022/04/27 06:03:29;;;;;;;8.13;3.47;;;;;;;;;;5137172;27;20031;-78
2022/04/27 06:05:55;;;;;;;9.43;4.85;;;;;;;;;;5136757;27;20114;-78
2022/04/27 06:08:20;;;;;;;6.45;2.95;;;;;;;;;;5138924;27;20029;-76
2022/04/27 06:10:46;;;;;;;6.97;2.97;;;;;;;;;;5135943;27;20076;-75
2022/04/27 06:13:13;;;;;;;6.10;2.90;;;;;;;;;;5136853;27;20090;-77
2022/04/27 06:15:40;;;;;;;4.53;2.80;;;;;;;;;;5118519;27;20035;-76
2022/04/27 06:18:05;;;;;;;4.70;2.67;;;;;;;;;;5139091;27;20030;-77
2022/04/27 06:20:31;;;;;;;7.47;3.20;;;;;;;;;;5141109;27;20027;-78
2022/04/27 06:22:57;;;;;;;6.30;3.20;;;;;;;;;;5138372;27;20031;-78
2022/04/27 06:25:25;;;;;;;6.35;2.50;;;;;;;;;;5136562;27;20506;-77
2022/04/27 06:27:51;;;;;;;7.32;2.38;;;;;;;;;;5136594;27;20027;-77
2022/04/27 06:30:16;;;;;;;4.65;2.53;;;;;;;;;;5119019;27;20401;-76
2022/04/27 06:32:42;;;;;;;2.30;2.10;;;;;;;;;;5118883;27;20027;-75
2022/04/27 06:35:12;;;;;;;23.05;6.28;;;;;;;;;;5138416;27;20100;-77
2022/04/27 06:37:41;;;;;;;4.32;2.60;;;;;;;;;;5106401;27;20035;-75
2022/04/27 06:40:08;;;;;;;3.70;2.47;;;;;;;;;;5130666;27;20020;-78
2022/04/27 06:42:34;;;;;;;3.80;2.35;;;;;;;;;;5114014;27;20107;-77
2022/04/27 06:45:01;;;;;;;2.97;2.30;;;;;;;;;;5134162;27;20031;-78
2022/04/27 06:47:26;;;;;;;3.22;2.58;;;;;;;;;;5116330;27;20061;-78
2022/04/27 06:49:51;;;;;;;5.85;2.88;;;;;;;;;;5111319;27;20066;-77
2022/04/27 06:52:17;;;;;;;2.95;2.30;;;;;;;;;;5118550;27;20049;-76
2022/04/27 06:54:44;;;;;;;3.78;2.78;;;;;;;;;;5119776;27;20059;-76
2022/04/27 06:57:12;;;;;;;6.43;3.17;;;;;;;;;;5126497;27;20034;-74
2022/04/27 06:59:38;;;;;;;13.40;3.42;;;;;;;;;;5119542;27;20039;-73
2022/04/27 07:02:05;;;;;;;4.10;3.13;;;;;;;;;;5126885;27;20047;-76
2022/04/27 07:04:31;;;;;;;5.65;3.10;;;;;;;;;;5092100;27;20039;-73
2022/04/27 07:06:57;;;;;;;4.40;3.08;;;;;;;;;;5133285;27;20095;-75
2022/04/27 07:09:23;;;;;;;4.80;3.05;;;;;;;;;;5125763;27;20035;-75
2022/04/27 07:11:48;;;;;;;4.57;2.97;;;;;;;;;;5115045;27;20035;-74
2022/04/27 07:14:16;;;;;;;3.33;2.80;;;;;;;;;;5111692;27;20358;-75
2022/04/27 07:16:42;;;;;;;3.55;2.33;;;;;;;;;;5123088;27;20231;-78
2022/04/27 07:19:08;;;;;;;3.33;2.40;;;;;;;;;;5143953;27;20180;-76
2022/04/27 07:21:33;;;;;;;3.60;2.50;;;;;;;;;;5103842;27;20122;-76
2022/04/27 07:24:02;;;;;;;6.90;3.03;;;;;;;;;;5128188;27;20107;-76
2022/04/27 07:26:28;;;;;;;4.57;3.20;;;;;;;;;;5106916;27;20163;-76
2022/04/27 07:28:55;;;;;;;3.90;2.97;;;;;;;;;;5108675;27;20023;-76
2022/04/27 07:31:21;;;;;;;5.55;2.83;;;;;;;;;;5113017;27;20030;-76
2022/04/27 07:33:47;;;;;;;3.80;3.00;;;;;;;;;;5129929;27;20030;-76
2022/04/27 07:36:17;;;;;;;4.57;3.15;;;;;;;;;;5129837;27;20019;-78
2022/04/27 07:38:42;;;;;;;7.90;3.08;;;;;;;;;;5102770;27;20831;-77
2022/04/27 07:41:08;;;;;;;5.43;3.13;;;;;;;;;;5127912;27;20046;-78
2022/04/27 07:43:34;;;;;;;3.20;2.90;;;;;;;;;;5130876;27;20035;-78
2022/04/27 07:46:00;;;;;;;10.75;3.50;;;;;;;;;;5095815;27;20378;-78
2022/04/27 07:48:32;;;;;;;9.50;3.20;;;;;;;;;;5115689;27;20047;-75
2022/04/27 07:50:59;;;;;;;6.80;3.10;;;;;;;;;;5124179;27;20081;-77
2022/04/27 07:53:24;;;;;;;3.05;2.80;;;;;;;;;;5126990;27;20027;-78
2022/04/27 07:55:50;;;;;;;4.88;3.00;;;;;;;;;;5132953;27;20050;-79
2022/04/27 07:58:15;;;;;;;3.33;2.90;;;;;;;;;;5121889;27;20046;-80
2022/04/27 08:00:41;;;;;;;4.88;3.45;;;;;;;;;;5115025;28;20529;-77
2022/04/27 08:03:06;;;;;;;7.90;3.28;;;;;;;;;;5094043;28;20044;-78
2022/04/27 08:05:32;;;;;;;3.78;3.10;;;;;;;;;;5089911;28;20023;-78
2022/04/27 08:07:57;;;;;;;13.60;3.95;;;;;;;;;;5074198;28;20039;-77
2022/04/27 08:10:23;;;;;;;5.70;3.30;;;;;;;;;;5090968;28;20473;-78
2022/04/27 08:12:49;;;;;;;6.00;3.20;;;;;;;;;;5092499;28;20445;-78
2022/04/27 08:15:16;;;;;;;4.88;3.13;;;;;;;;;;5095152;28;20564;-76
2022/04/27 08:18:00;;;;;;;6.75;3.50;;;;;;;;;;5113644;28;20344;-76
2022/04/27 08:23:14;;;;;;;8.20;3.80;;;;;;;;;;5106596;28;20649;-79
2022/04/27 08:25:40;;;;;;;4.75;4.10;;;;;;;;;;5096705;28;20115;-78
2022/04/27 08:28:06;;;;;;;5.18;4.32;;;;;;;;;;5091826;28;20038;-79
2022/04/27 08:30:34;;;;;;;11.23;3.97;;;;;;;;;;5090092;28;20028;-76
2022/04/27 08:33:00;;;;;;;7.57;3.83;;;;;;;;;;5089801;28;20020;-75
2022/04/27 08:35:29;;;;;;;5.65;4.20;;;;;;;;;;5088366;28;20070;-76
2022/04/27 08:37:55;;;;;;;10.93;4.10;;;;;;;;;;5078511;28;20055;-77
2022/04/27 08:40:21;;;;;;;8.32;4.22;;;;;;;;;;5092577;28;20031;-76
2022/04/27 08:42:49;;;;;;;5.88;4.20;;;;;;;;;;5081398;28;20024;-76
2022/04/27 08:45:15;;;;;;;6.63;5.00;;;;;;;;;;5090549;28;20031;-75
2022/04/27 08:47:48;;;;;;;11.07;4.85;;;;;;;;;;5099903;28;20046;-75
2022/04/27 08:50:15;;;;;;;8.57;4.75;;;;;;;;;;5106780;28;20028;-76
2022/04/27 08:52:41;;;;;;;10.93;4.85;;;;;;;;;;5102780;28;20042;-78
2022/04/27 08:55:08;;;;;;;9.35;4.90;;;;;;;;;;5097302;28;20027;-77
2022/04/27 08:57:33;;;;;;;6.38;5.03;;;;;;;;;;5103404;28;20404;-78
2022/04/27 08:59:59;;;;;;;7.68;5.10;;;;;;;;;;5095511;28;20048;-78
2022/04/27 09:02:28;;;;;;;7.45;4.47;;;;;;;;;;5113025;28;20807;-75
2022/04/27 09:05:16;;;;;;;7.30;4.93;;;;;;;;;;5129057;28;20061;-78
2022/04/27 09:07:43;;;;;;;9.05;5.13;;;;;;;;;;5129366;28;20072;-77
2022/04/27 09:10:13;;;;;;;7.97;4.47;;;;;;;;;;5128537;28;20031;-75
2022/04/27 09:12:46;;;;;;;6.55;4.70;;;;;;;;;;5093860;28;20481;-79
2022/04/27 09:15:12;;;;;;;10.60;4.72;;;;;;;;;;5104101;28;20088;-77
2022/04/27 09:23:07;;;;;;;8.85;4.50;;;;;;;;;;5116354;27;20038;-76
2022/04/27 09:25:36;;;;;;;7.13;4.13;;;;;;;;;;5083184;28;20044;-76
2022/04/27 09:28:03;;;;;;;7.97;4.35;;;;;;;;;;5080487;28;20084;-76
2022/04/27 09:30:49;;;;;;;7.18;4.50;;;;;;;;;;5113491;28;20456;-77
2022/04/27 09:33:35;;;;;;;7.00;4.13;;;;;;;;;;5114081;28;20144;-77
2022/04/27 09:36:01;;;;;;;6.57;4.07;;;;;;;;;;5098018;28;20035;-76
2022/04/27 09:38:26;;;;;;;5.55;4.07;;;;;;;;;;5096674;28;20036;-79
2022/04/27 09:40:54;;;;;;;8.20;3.97;;;;;;;;;;5097764;27;20627;-77
2022/04/27 09:44:05;;;;;;;6.32;4.53;;;;;;;;;;5102568;28;20030;-78
2022/04/27 09:46:32;;;;;;;4.25;3.30;;;;;;;;;;5101462;28;20028;-77
2022/04/27 09:49:11;;;;;;;5.60;3.95;;;;;;;;;;5087352;28;20085;-76
2022/04/27 09:51:36;;;;;;;;;;;;;;;;;;5123500;27;20050;-78
2022/04/27 09:54:02;;;;;;;7.78;3.60;;;;;;;;;;5103999;27;19911;-78
2022/04/27 09:56:37;;;;;;;6.22;3.30;;;;;;;;;;5104960;27;20038;-78
2022/04/27 09:59:10;;;;;;;8.25;3.03;;;;;;;;;;5118547;27;20029;-78
2022/04/27 10:01:36;;;;;;;5.70;3.13;;;;;;;;;;5109733;27;20067;-78
2022/04/27 10:04:05;;;;;;;5.75;3.08;;;;;;;;;;5096293;28;20059;-77
2022/04/27 10:06:33;;;;;;;5.28;3.25;;;;;;;;;;5101804;28;20448;-75
2022/04/27 10:08:59;;;;;;;5.80;2.85;;;;;;;;;;5112845;27;20039;-77
2022/04/27 10:11:29;;;;;;;4.57;3.00;;;;;;;;;;5092605;28;20035;-78
2022/04/27 10:13:55;;;;;;;8.63;3.35;;;;;;;;;;5097997;28;20035;-78
2022/04/27 10:16:24;;;;;;;3.70;2.75;;;;;;;;;;5107796;28;20085;-76
2022/04/27 10:18:50;;;;;;;;;;;;;;;;;;5103399;28;20024;-77
2022/04/27 10:21:43;;;;;;;3.92;2.22;;;;;;;;;;5096853;28;20016;-78
2022/04/27 10:24:09;;;;;;;3.10;1.88;;;;;;;;;;5084026;28;20035;-78
2022/04/27 10:26:37;;;;;;;5.43;2.55;;;;;;;;;;5107090;28;20020;-77
2022/04/27 10:29:08;;;;;;;2.97;1.73;;;;;;;;;;5090038;28;20028;-79
2022/04/27 10:31:43;;;;;;;8.13;1.90;;;;;;;;;;5093978;28;20050;-79
2022/04/27 10:34:20;;;;;;;7.65;1.65;;;;;;;;;;5112457;28;20024;-77
2022/04/27 10:36:55;;;;;;;4.30;1.67;;;;;;;;;;5117225;28;20020;-77
2022/04/27 10:39:22;;;;;;;1.40;1.30;;;;;;;;;;5113261;27;20057;-78
2022/04/27 10:42:03;;;;;;;2.90;1.70;;;;;;;;;;5092802;28;20365;-77
2022/04/27 10:44:50;;;;;;;1.70;1.60;;;;;;;;;;5094078;28;20056;-77
2022/04/27 10:47:19;;;;;;;4.18;1.80;;;;;;;;;;5093983;28;20024;-77
2022/04/27 10:49:48;;;;;;;2.90;2.00;;;;;;;;;;5092683;28;20028;-78
2022/04/27 10:52:14;;;;;;;4.63;1.85;;;;;;;;;;5092158;28;20226;-77
2022/04/27 10:54:40;;;;;;;7.45;2.25;;;;;;;;;;5076389;28;20032;-79
2022/04/27 10:57:15;;;;;;;3.95;1.77;;;;;;;;;;5104174;28;20027;-78
2022/04/27 10:59:59;;;;;;;2.05;1.85;;;;;;;;;;5100721;28;20064;-77
2022/04/27 11:02:34;;;;;;;3.40;1.70;;;;;;;;;;5107932;28;20204;-78
2022/04/27 11:05:04;;;;;;;4.95;1.95;;;;;;;;;;5093039;28;20101;-78
2022/04/27 11:07:47;;;;;;;3.38;1.90;;;;;;;;;;5103793;28;20039;-76
2022/04/27 11:10:13;;;;;;;2.78;1.65;;;;;;;;;;5104512;28;20056;-78
2022/04/27 11:13:01;;;;;;;3.17;1.63;;;;;;;;;;5100813;28;20096;-77
2022/04/27 11:15:27;;;;;;;7.90;2.40;;;;;;;;;;5104403;28;20036;-79
2022/04/27 11:17:53;;;;;;;4.97;2.15;;;;;;;;;;5099923;28;20028;-77
2022/04/27 11:20:28;;;;;;;2.88;1.50;;;;;;;;;;5093636;28;20043;-78
2022/04/27 11:22:53;;;;;;;4.22;1.70;;;;;;;;;;5094967;28;20027;-77
2022/04/27 11:25:32;;;;;;;2.75;1.50;;;;;;;;;;5094307;28;20134;-76
2022/04/27 11:27:59;;;;;;;5.00;1.40;;;;;;;;;;5091879;28;20036;-77
2022/04/27 11:30:25;;;;;;;5.43;1.40;;;;;;;;;;5093019;28;20028;-77
2022/04/27 11:32:52;;;;;;;1.73;1.30;;;;;;;;;;5077018;28;20164;-77
2022/04/27 11:35:21;;;;;;;1.85;1.33;;;;;;;;;;5096162;28;20396;-76
2022/04/27 11:37:47;;;;;;;1.77;1.60;;;;;;;;;;5101231;28;20072;-78
2022/04/27 11:40:19;;;;;;;3.50;1.92;;;;;;;;;;5112323;28;20031;-78
2022/04/27 11:42:46;;;;;;;4.05;1.92;;;;;;;;;;5094453;28;20428;-78
2022/04/27 11:45:13;;;;;;;5.60;2.30;;;;;;;;;;5110681;28;20023;-77
2022/04/27 11:47:38;;;;;;;3.03;1.80;;;;;;;;;;5110634;28;20062;-77
2022/04/27 11:50:05;;;;;;;5.97;1.90;;;;;;;;;;5112695;28;20027;-78
2022/04/27 11:52:31;;;;;;;1.83;1.55;;;;;;;;;;5112420;28;20406;-77
2022/04/27 11:55:10;;;;;;;2.10;1.35;;;;;;;;;;5112150;28;20020;-77
2022/04/27 11:57:35;;;;;;;6.18;1.90;;;;;;;;;;5120225;28;20026;-77
2022/04/27 12:00:03;;;;;;;1.50;1.40;;;;;;;;;;5113435;28;20016;-77
2022/04/27 12:02:28;;;;;;;3.38;1.40;;;;;;;;;;5112532;28;20460;-77
2022/04/27 12:04:57;;;;;;;3.30;1.40;;;;;;;;;;5112867;28;20023;-78
2022/04/27 12:07:23;;;;;;;2.00;1.30;;;;;;;;;;5112853;28;20115;-77
2022/04/27 12:10:07;;;;;;;3.03;1.60;;;;;;;;;;5096705;28;20364;-81
2022/04/27 12:12:33;;;;;;;3.50;1.50;;;;;;;;;;5098472;28;20468;-82
2022/04/27 12:15:04;;;;;;;8.95;4.75;;;;;;;;;;5097298;28;20030;-82
2022/04/27 12:18:05;;;;;;;2.33;1.60;;;;;;;;;;5107881;28;20024;-83
2022/04/27 12:20:37;;;;;;;5.22;1.60;;;;;;;;;;5016300;28;20029;-85
2022/04/27 12:23:28;;;;;;;2.80;1.33;;;;;;;;;;5101616;28;20456;-82
2022/04/27 12:25:58;;;;;;;2.03;1.58;;;;;;;;;;5114925;28;20029;-83
2022/04/27 12:28:40;;;;;;;3.65;1.23;;;;;;;;;;5081338;28;20471;-83
2022/04/27 12:31:06;;;;;;;3.13;1.60;;;;;;;;;;5113932;28;20066;-84
2022/04/27 12:33:37;;;;;;;4.07;1.33;;;;;;;;;;5113818;28;20019;-82
2022/04/27 12:39:09;;;;;;;1.80;1.30;;;;;;;;;;5117686;28;20141;-83
2022/04/27 12:41:42;;;;;;;2.55;1.42;;;;;;;;;;5097237;28;20377;-84
2022/04/27 12:44:11;;;;;;;2.53;1.20;;;;;;;;;;5097322;28;20463;-83
2022/04/27 12:46:40;;;;;;;5.70;4.25;;;;;;;;;;5113967;28;20431;-83
2022/04/27 12:49:06;;;;;;;1.67;1.38;;;;;;;;;;5113807;28;20032;-82
2022/04/27 12:51:34;;;;;;;2.20;2.00;;;;;;;;;;5113560;28;20055;-84
2022/04/27 12:54:01;;;;;;;3.38;1.55;;;;;;;;;;5114486;28;20028;-83
2022/04/27 12:56:36;;;;;;;1.50;1.30;;;;;;;;;;5122714;28;20023;-84
2022/04/27 12:59:14;;;;;;;3.88;1.30;;;;;;;;;;5117071;28;20028;-84
2022/04/27 13:01:39;;;;;;;3.05;1.50;;;;;;;;;;5113587;28;20071;-84
2022/04/27 13:04:06;;;;;;;1.98;1.30;;;;;;;;;;5096584;28;20490;-83
2022/04/27 13:06:32;;;;;;;5.07;1.40;;;;;;;;;;5114368;28;20047;-83
2022/04/27 13:11:57;;;;;;;3.28;2.00;;;;;;;;;;5113511;28;20036;-84
2022/04/27 13:14:26;;;;;;;3.25;1.13;;;;;;;;;;5114579;28;20024;-84
2022/04/27 13:16:55;;;;;;;1.63;1.52;;;;;;;;;;5118788;28;20034;-83
2022/04/27 13:19:21;;;;;;;2.38;1.17;;;;;;;;;;5097511;28;20023;-83
2022/04/27 13:21:47;;;;;;;5.40;1.60;;;;;;;;;;5112714;28;20047;-85
2022/04/27 13:24:13;;;;;;;3.35;1.60;;;;;;;;;;5096580;28;20138;-83
2022/04/27 13:26:39;;;;;;;4.82;1.63;;;;;;;;;;5112945;28;20023;-83
2022/04/27 13:29:04;;;;;;;4.10;1.60;;;;;;;;;;5111713;28;20064;-83
2022/04/27 13:31:31;;;;;;;1.58;1.25;;;;;;;;;;5112818;28;20032;-83
2022/04/27 13:33:56;;;;;;;4.38;1.60;;;;;;;;;;5095098;28;20096;-84
2022/04/27 13:36:21;;;;;;;3.20;1.48;;;;;;;;;;5120449;28;20079;-84
2022/04/27 13:38:47;;;;;;;1.45;1.35;;;;;;;;;;5119533;28;20030;-84
2022/04/27 13:41:13;;;;;;;2.83;1.80;;;;;;;;;;5113202;28;20128;-83
2022/04/27 13:43:38;;;;;;;5.63;1.60;;;;;;;;;;5096286;28;20031;-83
2022/04/27 13:46:07;;;;;;;3.40;1.88;;;;;;;;;;5096311;28;20049;-83
2022/04/27 13:48:33;;;;;;;3.72;1.40;;;;;;;;;;5096540;28;20030;-83
2022/04/27 13:51:00;;;;;;;3.75;1.60;;;;;;;;;;5112670;28;20517;-82
2022/04/27 13:53:27;;;;;;;3.72;1.50;;;;;;;;;;5096316;28;20031;-85
2022/04/27 13:55:52;;;;;;;2.78;1.50;;;;;;;;;;5096662;28;20352;-82
2022/04/27 13:58:17;;;;;;;2.85;1.60;;;;;;;;;;5105836;28;20024;-83
2022/04/27 14:00:43;;;;;;;9.43;1.70;;;;;;;;;;5118088;28;20050;-84
2022/04/27 14:03:08;;;;;;;5.63;1.80;;;;;;;;;;5116205;28;20023;-84
2022/04/27 14:05:34;;;;;;;3.00;1.70;;;;;;;;;;5116211;28;20433;-83
2022/04/27 14:08:02;;;;;;;1.42;1.30;;;;;;;;;;5099455;27;20355;-84
2022/04/27 14:10:28;;;;;;;2.92;1.60;;;;;;;;;;5138364;27;20038;-82
2022/04/27 14:13:14;;;;;;;3.55;1.63;;;;;;;;;;5138515;27;20023;-82
2022/04/27 14:18:30;;;;;;;5.00;1.88;;;;;;;;;;5148635;27;20034;-83
2022/04/27 14:20:56;;;;;;;17.58;2.92;;;;;;;;;;5103155;27;20027;-83
2022/04/27 14:23:22;;;;;;;4.50;2.03;;;;;;;;;;5119720;27;20379;-83
2022/04/27 14:25:48;;;;;;;7.47;2.20;;;;;;;;;;5120165;27;20436;-84
2022/04/27 14:28:13;;;;;;;9.68;2.20;;;;;;;;;;5119633;27;20031;-85
2022/04/27 14:30:39;;;;;;;5.68;2.00;;;;;;;;;;5085840;27;20024;-83
2022/04/27 14:33:06;;;;;;;2.38;1.70;;;;;;;;;;5138084;27;20436;-83
2022/04/27 14:35:32;;;;;;;2.63;1.40;;;;;;;;;;5086176;27;20027;-81
2022/04/27 14:37:59;;;;;;;4.82;1.80;;;;;;;;;;5129620;27;20024;-82
2022/04/27 14:40:24;;;;;;;5.35;1.70;;;;;;;;;;5139043;27;20080;-83
2022/04/27 14:42:51;;;;;;;1.63;1.50;;;;;;;;;;5119973;27;20027;-83
2022/04/27 14:45:17;;;;;;;1.95;1.42;;;;;;;;;;5121135;27;20023;-82
2022/04/27 14:47:42;;;;;;;4.68;1.38;;;;;;;;;;5104283;27;20030;-82
2022/04/27 14:50:08;;;;;;;1.33;1.23;;;;;;;;;;5120066;27;20157;-82
2022/04/27 14:52:35;;;;;;;1.85;1.23;;;;;;;;;;5142549;27;20027;-81
2022/04/27 14:55:01;;;;;;;6.50;1.70;;;;;;;;;;5103227;27;20030;-82
2022/04/27 14:57:27;;;;;;;4.35;1.80;;;;;;;;;;5111477;27;20031;-82
2022/04/27 14:59:57;;;;;;;2.75;1.55;;;;;;;;;;5104308;27;20023;-83
2022/04/27 15:02:23;;;;;;;;;;;;;;;;;;5119972;27;20092;-83
2022/04/27 15:04:49;;;;;;;4.45;2.00;;;;;;;;;;5137292;27;19919;-86
2022/04/27 15:07:14;;;;;;;2.25;1.50;;;;;;;;;;5085238;27;20015;-83
2022/04/27 15:09:40;;;;;;;6.85;2.22;;;;;;;;;;5085337;27;20065;-82
2022/04/27 15:12:06;;;;;;;2.17;1.75;;;;;;;;;;5118777;27;20091;-84
2022/04/27 15:14:32;;;;;;;2.83;1.80;;;;;;;;;;5102228;27;20031;-84
2022/04/27 15:16:59;;;;;;;2.90;1.90;;;;;;;;;;5121388;27;20038;-83